• Motorflug
  • Segelflug
  • Ballon
  • Ultraleicht
 

Herzlich willkommen


Der Luftsportclub Hamm e.V. betreibt seit über 50 Jahren den Flugplatz Hamm-Lippewiesen in nahezu einmaliger Innenstadtlage. In vier Sportgruppen gehen die mehr als 350 Mitglieder ihren Hobbys Motorflug, Segelflug, Ultraleichtflug und Ballonfahrt nach.

Wir freuen uns auf Ihren Besuch am Flugplatz Hamm – egal ob zu Fuß oder mit dem Flugzeug!

Flugplatz geschlossen


Aufgrund der weiteren Entwicklung in der Corona-Krise wurde beschlossen, den Flugplatz bis auf Weiteres für hier nicht stationierte Luftfahrzeuge zu schließen.

Wir bitten um Ihr Verständnis und hoffen, Ihnen bald wieder unseren regulären Service anbieten zu können. Bleiben Sie gesund!

NOTAMs

Flugplatzwetter

20 °C

EDLH 091630Z AUTO 36004KT 270V060 //// ////// 20/05 Q1025

Was ist das?

 

Angebot für Piloten

Besuchen Sie den Flugplatz Hamm und sparen die Landegebühr

 

Zu den Angeboten

Live-Webcam

Was ist gerade am Flugplatz Hamm los? Finden Sie es heraus - mit unserer Live-Webcam!

 

Kamera öffnen